Time;durP1;ratioP1;P1;durP2;ratioP2;P2;SDS_P1;SDS_P2;PMS_P1;PMS_P2;Temp;Humidity;BMP_temperature;BMP_pressure;BME280_temperature;BME280_humidity;BME280_pressure;Samples;Min_cycle;Max_cycle;Signal;HPM_P1;HPM_P2
2021/10/05 00:00:55;;;;;;;4.40;4.10;;;;;;;10.92;100.00;97842.25;4937661;28;20823;-68
2021/10/05 00:03:23;;;;;;;4.57;4.27;;;;;;;10.87;100.00;97849.91;4949409;28;20231;-66
2021/10/05 00:05:53;;;;;;;4.37;4.10;;;;;;;10.82;100.00;97841.63;4952030;28;20202;-66
2021/10/05 00:08:21;;;;;;;4.00;3.57;;;;;;;10.98;100.00;97843.38;4953046;28;20231;-68
2021/10/05 00:10:49;;;;;;;4.30;3.90;;;;;;;10.88;100.00;97834.81;4925511;28;20218;-67
2021/10/05 00:13:17;;;;;;;3.60;3.40;;;;;;;10.86;100.00;97833.16;4946045;28;20306;-66
2021/10/05 00:15:46;;;;;;;3.93;3.73;;;;;;;10.78;100.00;97821.72;4956316;28;20234;-69
2021/10/05 00:18:14;;;;;;;3.80;3.60;;;;;;;10.85;100.00;97820.91;4945350;28;20397;-66
2021/10/05 00:20:42;;;;;;;4.63;3.90;;;;;;;10.93;100.00;97822.69;4955866;28;20199;-68
2021/10/05 00:23:12;;;;;;;4.10;3.80;;;;;;;10.91;100.00;97819.41;4957354;28;20234;-66
2021/10/05 00:25:40;;;;;;;4.10;3.80;;;;;;;10.85;100.00;97812.13;4925335;28;20801;-68
2021/10/05 00:28:08;;;;;;;3.53;3.30;;;;;;;10.90;100.00;97801.00;4940543;28;20230;-68
2021/10/05 00:30:36;;;;;;;4.63;4.33;;;;;;;10.83;100.00;97796.38;4956242;28;20676;-68
2021/10/05 00:33:04;;;;;;;3.83;3.63;;;;;;;10.81;100.00;97790.41;4944804;28;20464;-68
2021/10/05 00:35:32;;;;;;;4.37;3.97;;;;;;;10.70;100.00;97786.31;4957280;28;20210;-68
2021/10/05 00:38:01;;;;;;;4.20;3.90;;;;;;;10.75;100.00;97795.56;4952936;28;20211;-66
2021/10/05 00:40:30;;;;;;;3.80;3.60;;;;;;;10.64;100.00;97784.34;4955461;28;20278;-67
2021/10/05 00:42:58;;;;;;;5.33;4.97;;;;;;;10.61;100.00;97787.34;4911183;28;20817;-66
2021/10/05 00:45:27;;;;;;;4.23;3.93;;;;;;;10.72;100.00;97783.50;4957024;28;20210;-68
2021/10/05 00:47:55;;;;;;;4.27;4.07;;;;;;;10.74;100.00;97773.56;4947160;28;20234;-66
2021/10/05 00:50:23;;;;;;;4.27;3.97;;;;;;;10.64;100.00;97776.38;4951692;28;20804;-68
2021/10/05 00:52:51;;;;;;;4.97;4.13;;;;;;;10.44;100.00;97775.94;4951664;28;20237;-66
2021/10/05 00:55:20;;;;;;;4.63;4.23;;;;;;;10.36;100.00;97770.63;4956874;28;20829;-68
2021/10/05 00:57:51;;;;;;;4.90;4.43;;;;;;;10.47;100.00;97761.53;4923580;28;20222;-67
2021/10/05 01:00:21;;;;;;;4.73;4.43;;;;;;;10.43;100.00;97758.38;4951953;28;20763;-69
2021/10/05 01:02:49;;;;;;;4.87;4.50;;;;;;;10.38;100.00;97737.66;4953008;28;20235;-67
2021/10/05 01:05:18;;;;;;;4.97;4.47;;;;;;;10.54;100.00;97733.38;4945663;28;20325;-69
2021/10/05 01:07:48;;;;;;;4.93;4.57;;;;;;;10.49;100.00;97725.09;4954282;28;20230;-67
2021/10/05 01:10:18;;;;;;;5.40;5.00;;;;;;;10.47;100.00;97719.16;4955349;28;20598;-66
2021/10/05 01:12:47;;;;;;;5.70;5.20;;;;;;;10.49;100.00;97711.84;4925708;28;20238;-66
2021/10/05 01:15:17;;;;;;;4.23;4.03;;;;;;;10.46;100.00;97710.38;4942916;28;20206;-68
2021/10/05 01:17:45;;;;;;;5.57;5.17;;;;;;;10.39;100.00;97710.19;4952201;28;20365;-66
2021/10/05 01:20:14;;;;;;;5.50;5.03;;;;;;;10.39;100.00;97707.53;4944029;28;20519;-67
2021/10/05 01:22:44;;;;;;;7.27;5.20;;;;;;;10.37;100.00;97709.53;4957177;28;20334;-67
2021/10/05 01:25:15;;;;;;;5.53;5.13;;;;;;;10.38;100.00;97705.88;4955262;28;20232;-68
2021/10/05 01:27:45;;;;;;;6.17;5.67;;;;;;;10.40;100.00;97714.50;4924589;28;20237;-67
2021/10/05 01:30:13;;;;;;;5.07;4.67;;;;;;;10.41;100.00;97713.50;4941303;28;20222;-68
2021/10/05 01:32:42;;;;;;;6.43;5.33;;;;;;;10.33;100.00;97702.91;4920691;28;20288;-68
2021/10/05 01:35:10;;;;;;;6.20;5.70;;;;;;;10.39;100.00;97704.06;4956197;28;20225;-66
2021/10/05 01:37:38;;;;;;;6.50;6.00;;;;;;;10.32;100.00;97693.31;4956513;28;20207;-68
2021/10/05 01:40:10;;;;;;;5.83;5.33;;;;;;;10.39;100.00;97688.19;4952580;28;20241;-67
2021/10/05 01:42:39;;;;;;;6.20;5.70;;;;;;;10.39;100.00;97688.19;4956267;28;20445;-68
2021/10/05 01:45:08;;;;;;;8.47;6.00;;;;;;;10.37;100.00;97690.97;4945937;28;20222;-67
2021/10/05 01:47:38;;;;;;;6.27;5.67;;;;;;;10.33;100.00;97683.56;4924420;28;20318;-66
2021/10/05 01:50:07;;;;;;;6.07;5.47;;;;;;;10.35;100.00;97677.09;4953596;28;21612;-66
2021/10/05 01:52:36;;;;;;;8.50;5.80;;;;;;;10.35;100.00;97678.91;4955383;28;20448;-69
2021/10/05 01:55:05;;;;;;;6.47;5.93;;;;;;;10.20;100.00;97678.78;4954711;28;20213;-67
2021/10/05 01:57:35;;;;;;;6.43;6.00;;;;;;;10.19;100.00;97679.78;4952972;28;20336;-68
2021/10/05 02:00:04;;;;;;;6.73;6.13;;;;;;;10.10;100.00;97682.47;4955577;28;20218;-68
2021/10/05 02:02:33;;;;;;;5.97;5.47;;;;;;;10.25;100.00;97672.00;4907504;28;20238;-68
2021/10/05 02:05:01;;;;;;;6.03;5.63;;;;;;;10.31;100.00;97667.00;4952804;28;20695;-68
2021/10/05 02:07:29;;;;;;;6.73;5.93;;;;;;;10.18;100.00;97656.94;4953178;28;20511;-66
2021/10/05 02:09:57;;;;;;;6.13;5.63;;;;;;;10.29;100.00;97656.56;4957058;28;20292;-67
2021/10/05 02:12:27;;;;;;;6.37;5.87;;;;;;;10.27;100.00;97647.97;4951865;28;20726;-68
2021/10/05 02:14:56;;;;;;;7.43;6.83;;;;;;;10.33;100.00;97646.47;4956107;28;20211;-67
2021/10/05 02:17:24;;;;;;;6.47;5.97;;;;;;;10.20;100.00;97642.53;4912109;28;20676;-67
2021/10/05 02:19:53;;;;;;;6.60;6.10;;;;;;;10.33;100.00;97641.19;4934171;28;20842;-68
2021/10/05 02:22:21;;;;;;;7.47;6.50;;;;;;;10.31;100.00;97636.03;4956423;28;20206;-67
2021/10/05 02:24:49;;;;;;;7.97;7.27;;;;;;;10.25;100.00;97634.94;4939795;28;20435;-66
2021/10/05 02:27:18;;;;;;;6.93;6.33;;;;;;;10.21;100.00;97630.13;4951761;28;20679;-68
2021/10/05 02:29:47;;;;;;;6.93;6.33;;;;;;;10.25;100.00;97626.97;4949820;28;20226;-66
2021/10/05 02:32:17;;;;;;;7.20;6.60;;;;;;;10.31;100.00;97617.50;4948908;28;20233;-68
2021/10/05 02:34:45;;;;;;;7.00;6.50;;;;;;;10.25;100.00;97623.50;4917583;28;20702;-67
2021/10/05 02:37:13;;;;;;;7.13;6.60;;;;;;;10.25;100.00;97605.78;4956904;28;20219;-68
2021/10/05 02:39:42;;;;;;;7.87;7.13;;;;;;;10.40;100.00;97590.00;4936630;28;20572;-66
2021/10/05 02:42:10;;;;;;;7.50;6.80;;;;;;;10.28;100.00;97596.66;4952757;28;20210;-68
2021/10/05 02:44:39;;;;;;;7.57;6.90;;;;;;;10.33;100.00;97578.44;4954656;28;20624;-66
2021/10/05 02:47:08;;;;;;;7.97;6.90;;;;;;;10.36;100.00;97579.91;4944849;28;20417;-68
2021/10/05 02:49:43;;;;;;;6.67;6.17;;;;;;;10.41;100.00;97585.56;4922546;28;20230;-66
2021/10/05 02:52:13;;;;;;;7.87;7.13;;;;;;;10.40;100.00;97581.25;4937361;28;20216;-67
2021/10/05 02:54:41;;;;;;;7.33;6.73;;;;;;;10.44;100.00;97579.09;4932657;28;20229;-67
2021/10/05 02:57:09;;;;;;;7.67;7.07;;;;;;;10.32;100.00;97576.78;4949032;28;20202;-69
2021/10/05 02:59:38;;;;;;;6.87;6.37;;;;;;;10.37;100.00;97574.44;4939106;28;20229;-67
2021/10/05 03:02:06;;;;;;;7.63;7.03;;;;;;;10.37;100.00;97565.69;4951779;28;20214;-69
2021/10/05 03:04:35;;;;;;;7.70;7.10;;;;;;;10.28;100.00;97555.13;4915992;28;20245;-67
2021/10/05 03:07:05;;;;;;;7.30;6.70;;;;;;;10.31;100.00;97551.28;4936894;28;20211;-69
2021/10/05 03:09:33;;;;;;;7.30;6.67;;;;;;;10.27;100.00;97536.75;4948812;28;20248;-67
2021/10/05 03:12:02;;;;;;;7.13;6.53;;;;;;;10.22;100.00;97542.56;4954764;28;20209;-69
2021/10/05 03:14:30;;;;;;;7.93;7.33;;;;;;;10.28;100.00;97533.94;4950129;28;20865;-67
2021/10/05 03:16:58;;;;;;;7.07;6.47;;;;;;;10.26;100.00;97530.66;4951436;28;20716;-67
2021/10/05 03:19:26;;;;;;;7.30;6.70;;;;;;;10.25;100.00;97526.34;4929419;28;20226;-69
2021/10/05 03:21:56;;;;;;;7.87;7.27;;;;;;;10.30;100.00;97525.81;4912542;28;20222;-69
2021/10/05 03:24:26;;;;;;;8.13;7.53;;;;;;;10.33;100.00;97520.16;4939135;28;20234;-69
2021/10/05 03:26:55;;;;;;;7.87;7.17;;;;;;;10.32;100.00;97523.00;4954732;28;20222;-69
2021/10/05 03:29:23;;;;;;;6.90;6.40;;;;;;;10.25;100.00;97523.69;4951492;28;20828;-68
2021/10/05 03:31:51;;;;;;;8.20;7.37;;;;;;;10.26;100.00;97514.75;4955639;28;20215;-69
2021/10/05 03:34:21;;;;;;;7.80;7.17;;;;;;;10.24;100.00;97511.47;4925989;28;20226;-69
2021/10/05 03:36:50;;;;;;;8.23;7.53;;;;;;;10.28;100.00;97523.34;4924781;28;20263;-69
2021/10/05 03:39:19;;;;;;;8.27;7.63;;;;;;;10.32;100.00;97533.59;4943548;28;20210;-68
2021/10/05 03:41:49;;;;;;;7.43;6.83;;;;;;;10.30;100.00;97532.94;4925613;28;20214;-69
2021/10/05 03:44:17;;;;;;;7.00;6.50;;;;;;;10.18;100.00;97545.75;4937393;28;20468;-69
2021/10/05 03:46:45;;;;;;;7.20;6.70;;;;;;;10.20;100.00;97549.03;4954111;28;20220;-67
2021/10/05 03:49:13;;;;;;;8.23;7.53;;;;;;;10.19;100.00;97552.69;4942476;28;20542;-68
2021/10/05 03:51:45;;;;;;;7.27;6.57;;;;;;;10.16;100.00;97553.84;4956153;28;20269;-67
2021/10/05 03:54:14;;;;;;;7.70;7.10;;;;;;;10.17;100.00;97544.91;4955291;28;20259;-69
2021/10/05 03:56:42;;;;;;;9.10;8.20;;;;;;;10.18;100.00;97545.75;4949701;28;20551;-67
2021/10/05 03:59:15;;;;;;;7.83;7.10;;;;;;;10.18;100.00;97553.69;4931816;28;20503;-69
2021/10/05 04:01:44;;;;;;;8.20;7.50;;;;;;;10.10;100.00;97552.72;4953695;28;20285;-68
2021/10/05 04:04:13;;;;;;;8.53;7.63;;;;;;;10.08;100.00;97552.06;4934082;28;20238;-69
2021/10/05 04:06:41;;;;;;;9.17;8.37;;;;;;;10.18;100.00;97543.91;4954706;28;20211;-67
2021/10/05 04:09:09;;;;;;;9.60;8.80;;;;;;;10.32;100.00;97545.00;4954155;28;20234;-68
2021/10/05 04:11:37;;;;;;;8.57;7.77;;;;;;;10.16;100.00;97532.66;4957032;28;20232;-68
2021/10/05 04:14:06;;;;;;;8.87;7.97;;;;;;;10.22;100.00;97524.00;4924074;28;20480;-69
2021/10/05 04:16:35;;;;;;;9.13;8.27;;;;;;;10.28;100.00;97519.84;4952250;28;20859;-70
2021/10/05 04:19:04;;;;;;;10.77;8.97;;;;;;;10.20;100.00;97514.63;4952195;28;20641;-69
2021/10/05 04:21:32;;;;;;;9.60;8.07;;;;;;;10.20;100.00;97515.41;4943379;28;20670;-68
2021/10/05 04:24:00;;;;;;;11.17;10.13;;;;;;;10.17;100.00;97505.19;4951145;28;20261;-66
2021/10/05 04:26:28;;;;;;;9.90;8.90;;;;;;;10.13;100.00;97503.88;4955320;28;20326;-66
2021/10/05 04:28:57;;;;;;;9.97;9.07;;;;;;;10.05;100.00;97496.81;4925855;28;20203;-68
2021/10/05 04:31:25;;;;;;;10.30;9.40;;;;;;;10.06;100.00;97492.34;4953975;28;20210;-68
2021/10/05 04:33:55;;;;;;;10.03;8.83;;;;;;;10.16;100.00;97486.84;4953407;28;20233;-67
2021/10/05 04:36:23;;;;;;;9.90;9.00;;;;;;;10.10;100.00;97477.75;4941183;28;20218;-68
2021/10/05 04:38:51;;;;;;;10.23;9.23;;;;;;;10.13;100.00;97474.75;4955381;28;20214;-67
2021/10/05 04:41:19;;;;;;;10.53;9.43;;;;;;;10.21;100.00;97487.94;4957114;28;20744;-68
2021/10/05 04:43:47;;;;;;;11.70;10.57;;;;;;;10.10;100.00;97477.75;4955858;28;20241;-67
2021/10/05 04:46:15;;;;;;;10.77;9.67;;;;;;;10.12;100.00;97476.59;4920506;28;20516;-68
2021/10/05 04:48:44;;;;;;;10.10;9.10;;;;;;;10.14;100.00;97474.59;4952707;28;20233;-67
2021/10/05 04:51:15;;;;;;;10.83;9.83;;;;;;;10.10;100.00;97468.00;4936488;28;20306;-69
2021/10/05 04:53:44;;;;;;;15.83;11.53;;;;;;;10.07;100.00;97478.94;4951642;28;20238;-67
2021/10/05 04:56:13;;;;;;;10.70;9.77;;;;;;;10.08;100.00;97475.28;4940735;28;20842;-70
2021/10/05 04:58:41;;;;;;;10.20;9.30;;;;;;;10.10;100.00;97477.75;4951660;28;20220;-70
2021/10/05 05:01:09;;;;;;;11.27;10.17;;;;;;;10.08;100.00;97475.28;4925117;28;20226;-71
2021/10/05 05:03:37;;;;;;;9.33;8.43;;;;;;;10.09;100.00;97469.00;4954542;28;20261;-70
2021/10/05 05:06:05;;;;;;;10.50;9.30;;;;;;;10.15;100.00;97475.41;4952094;28;20213;-69
2021/10/05 05:08:36;;;;;;;9.37;8.53;;;;;;;10.08;100.00;97474.47;4939489;28;20663;-69
2021/10/05 05:11:04;;;;;;;10.00;9.07;;;;;;;10.01;100.00;97471.66;4952839;28;20234;-70
2021/10/05 05:13:32;;;;;;;9.37;8.47;;;;;;;9.98;100.00;97478.16;4940925;28;20289;-69
2021/10/05 05:16:00;;;;;;;10.00;8.93;;;;;;;10.04;100.00;97458.13;4953168;28;20603;-69
2021/10/05 05:18:29;;;;;;;10.20;9.20;;;;;;;10.02;100.00;97460.06;4916590;28;20351;-70
2021/10/05 05:20:57;;;;;;;8.93;8.03;;;;;;;10.02;100.00;97464.56;4951656;28;20202;-70
2021/10/05 05:23:26;;;;;;;10.97;8.50;;;;;;;9.96;100.00;97472.22;4948967;28;20238;-68
2021/10/05 05:25:56;;;;;;;11.07;9.97;;;;;;;10.07;100.00;97473.66;4940840;28;20364;-71
2021/10/05 05:28:24;;;;;;;11.10;9.67;;;;;;;10.08;100.00;97448.81;4946550;28;20221;-70
2021/10/05 05:30:52;;;;;;;11.20;10.00;;;;;;;10.08;100.00;97462.06;4948323;28;20265;-70
2021/10/05 05:33:21;;;;;;;10.50;9.50;;;;;;;10.02;100.00;97457.44;4927851;28;20320;-68
2021/10/05 05:35:49;;;;;;;9.60;8.70;;;;;;;10.07;100.00;97464.88;4938833;28;20857;-70
2021/10/05 05:38:17;;;;;;;9.90;8.93;;;;;;;9.96;100.00;97458.97;4956366;28;20609;-70
2021/10/05 05:40:45;;;;;;;11.93;10.20;;;;;;;9.92;100.00;97454.19;4931580;28;20490;-71
2021/10/05 05:43:15;;;;;;;12.03;10.83;;;;;;;10.07;100.00;97463.06;4942343;28;20750;-65
2021/10/05 05:45:43;;;;;;;11.20;9.97;;;;;;;10.10;100.00;97461.88;4953613;28;20297;-69
2021/10/05 05:48:11;;;;;;;10.90;9.30;;;;;;;10.08;100.00;97456.75;4929424;28;20281;-69
2021/10/05 05:50:40;;;;;;;10.77;9.23;;;;;;;9.95;100.00;97467.91;4958127;28;20226;-68
2021/10/05 05:53:08;;;;;;;9.20;8.30;;;;;;;9.91;100.00;97465.78;4903778;28;20345;-70
2021/10/05 05:55:36;;;;;;;10.00;9.10;;;;;;;10.01;100.00;97473.50;4954584;28;20218;-70
2021/10/05 05:58:09;;;;;;;10.90;9.73;;;;;;;9.96;100.00;97481.94;4942648;28;20634;-68
2021/10/05 06:00:39;;;;;;;10.33;9.33;;;;;;;10.00;100.00;97488.53;4949541;28;20811;-70
2021/10/05 06:03:08;;;;;;;11.73;9.73;;;;;;;9.99;100.00;97487.75;4943235;28;20504;-68
2021/10/05 06:05:37;;;;;;;11.33;10.23;;;;;;;9.97;100.00;97478.31;4939638;28;20495;-69
2021/10/05 06:08:06;;;;;;;10.87;9.77;;;;;;;10.10;100.00;97483.88;4903493;28;20253;-69
2021/10/05 06:10:34;;;;;;;12.53;10.70;;;;;;;9.92;100.00;97480.66;4953907;28;20234;-71
2021/10/05 06:13:02;;;;;;;11.43;9.30;;;;;;;10.10;100.00;97478.59;4948598;28;20266;-68
2021/10/05 06:15:30;;;;;;;14.30;10.20;;;;;;;10.02;100.00;97489.19;4940441;28;20226;-70
2021/10/05 06:18:00;;;;;;;11.57;10.47;;;;;;;10.12;100.00;97483.69;4951721;28;20305;-69
2021/10/05 06:20:29;;;;;;;10.07;9.13;;;;;;;10.12;100.00;97481.88;4950798;28;20214;-67
2021/10/05 06:22:57;;;;;;;11.00;9.30;;;;;;;10.05;100.00;97485.41;4908663;28;20248;-67
2021/10/05 06:25:27;;;;;;;10.93;9.50;;;;;;;10.00;100.00;97483.25;4958416;28;20225;-68
2021/10/05 06:27:57;;;;;;;11.37;9.23;;;;;;;10.03;100.00;97488.19;4940512;28;20556;-69
2021/10/05 06:30:28;;;;;;;11.70;9.57;;;;;;;10.10;100.00;97489.19;4942305;28;20436;-69
2021/10/05 06:32:56;;;;;;;10.43;9.43;;;;;;;9.97;100.00;97495.03;4937624;28;20230;-70
2021/10/05 06:35:30;;;;;;;11.57;9.63;;;;;;;10.05;100.00;97490.69;4954887;28;20925;-68
2021/10/05 06:37:59;;;;;;;11.63;9.27;;;;;;;10.04;100.00;97484.59;4920893;28;20501;-66
2021/10/05 06:40:29;;;;;;;14.87;9.33;;;;;;;10.08;100.00;97479.75;4951695;28;20667;-70
2021/10/05 06:42:57;;;;;;;13.60;9.20;;;;;;;10.02;100.00;97475.97;4949083;28;20223;-68
2021/10/05 06:45:27;;;;;;;12.43;10.20;;;;;;;10.07;100.00;97476.28;4932691;28;20242;-70
2021/10/05 06:47:55;;;;;;;12.83;10.47;;;;;;;10.20;100.00;97481.00;4952048;28;20321;-70
2021/10/05 06:50:25;;;;;;;11.27;9.27;;;;;;;10.11;100.00;97477.59;4953644;28;20217;-70
2021/10/05 06:52:54;;;;;;;11.03;7.97;;;;;;;10.01;100.00;97473.50;4952279;28;20713;-71
2021/10/05 06:55:23;;;;;;;8.97;8.00;;;;;;;10.10;100.00;97475.94;4920960;28;20270;-67
2021/10/05 06:57:52;;;;;;;8.77;7.97;;;;;;;9.97;100.00;97473.84;4951569;28;20229;-70
2021/10/05 07:00:21;;;;;;;8.70;7.90;;;;;;;10.06;100.00;97482.59;4944126;28;20849;-69
2021/10/05 07:02:50;;;;;;;8.47;7.67;;;;;;;10.03;100.00;97490.03;4935370;28;20256;-69
2021/10/05 07:05:21;;;;;;;7.40;6.73;;;;;;;10.00;100.00;97491.19;4955274;28;20218;-69
2021/10/05 07:07:51;;;;;;;8.47;6.70;;;;;;;9.97;100.00;97492.38;4953903;28;20468;-70
2021/10/05 07:10:23;;;;;;;7.67;6.93;;;;;;;9.97;100.00;97489.72;4924711;28;20475;-68
2021/10/05 07:12:51;;;;;;;10.50;6.73;;;;;;;10.07;100.00;97483.41;4951673;28;20222;-69
2021/10/05 07:15:20;;;;;;;7.13;6.47;;;;;;;10.09;100.00;97481.41;4949924;28;20280;-68
2021/10/05 07:17:52;;;;;;;7.93;7.13;;;;;;;10.24;100.00;97484.13;4936621;28;20666;-70
2021/10/05 07:20:28;;;;;;;7.17;6.53;;;;;;;10.11;100.00;97480.25;4950256;28;20313;-69
2021/10/05 07:22:57;;;;;;;7.20;6.50;;;;;;;10.06;100.00;97487.88;4951379;28;20699;-71
2021/10/05 07:25:28;;;;;;;7.67;6.97;;;;;;;10.22;100.00;97476.34;4933387;28;20287;-69
2021/10/05 07:27:57;;;;;;;7.50;6.57;;;;;;;10.06;100.00;97472.00;4949633;28;20218;-71
2021/10/05 07:30:26;;;;;;;6.90;6.20;;;;;;;10.14;100.00;97481.69;4948828;28;20222;-69
2021/10/05 07:32:55;;;;;;;7.80;6.00;;;;;;;10.15;100.00;97467.47;4927346;28;20241;-67
2021/10/05 07:35:25;;;;;;;7.50;6.80;;;;;;;10.20;100.00;97466.94;4951219;28;20425;-70
2021/10/05 07:37:53;;;;;;;6.77;6.10;;;;;;;10.23;100.00;97458.66;4953698;28;20603;-71
2021/10/05 07:40:21;;;;;;;6.63;5.90;;;;;;;10.07;100.00;97457.75;4949853;28;20211;-70
2021/10/05 07:42:53;;;;;;;6.80;6.20;;;;;;;10.14;100.00;97466.66;4919840;28;20388;-71
2021/10/05 07:45:22;;;;;;;6.00;5.50;;;;;;;10.03;100.00;97468.84;4951663;28;20286;-70
2021/10/05 07:47:50;;;;;;;6.50;5.90;;;;;;;10.12;100.00;97465.16;4933126;28;20411;-72
2021/10/05 07:50:19;;;;;;;5.47;5.07;;;;;;;10.03;100.00;97464.38;4952657;28;21714;-69
2021/10/05 07:52:47;;;;;;;5.57;5.13;;;;;;;9.96;100.00;97460.78;4949551;28;20436;-69
2021/10/05 07:55:15;;;;;;;6.40;5.80;;;;;;;9.94;100.00;97463.63;4953375;28;20236;-70
2021/10/05 07:57:44;;;;;;;5.87;5.37;;;;;;;9.92;100.00;97462.97;4951742;28;20209;-72
2021/10/05 08:00:15;;;;;;;5.83;5.30;;;;;;;9.96;100.00;97474.00;4915880;28;20419;-68
2021/10/05 08:02:45;;;;;;;6.43;5.83;;;;;;;9.91;100.00;97479.00;4946416;28;20245;-70
2021/10/05 08:05:15;;;;;;;6.43;5.87;;;;;;;9.89;100.00;97481.84;4945837;28;20304;-70
2021/10/05 08:07:44;;;;;;;6.20;5.70;;;;;;;9.96;100.00;97476.66;4955021;28;20750;-71
2021/10/05 08:10:12;;;;;;;6.63;6.03;;;;;;;10.03;100.00;97463.56;4939706;28;20417;-68
2021/10/05 08:12:41;;;;;;;6.13;5.63;;;;;;;10.05;100.00;97467.69;4953262;28;20234;-70
2021/10/05 08:15:09;;;;;;;6.07;5.57;;;;;;;10.02;100.00;97467.22;4918912;28;20234;-70
2021/10/05 08:17:39;;;;;;;7.37;6.20;;;;;;;10.11;100.00;97474.09;4955615;28;20206;-72
2021/10/05 08:20:10;;;;;;;6.03;5.43;;;;;;;10.03;100.00;97482.91;4948147;28;20287;-69
2021/10/05 08:22:38;;;;;;;6.10;5.53;;;;;;;10.01;100.00;97471.66;4953285;28;20327;-71
2021/10/05 08:25:08;;;;;;;7.30;6.60;;;;;;;10.03;100.00;97476.81;4951085;28;20618;-69
2021/10/05 08:27:37;;;;;;;7.47;6.27;;;;;;;9.93;100.00;97490.25;4957457;28;20538;-70
2021/10/05 08:30:06;;;;;;;12.67;9.63;;;;;;;9.93;100.00;97493.72;4924213;28;20222;-70
2021/10/05 08:32:35;;;;;;;8.53;7.70;;;;;;;9.89;100.00;97488.94;4955012;28;20241;-69
2021/10/05 08:35:05;;;;;;;8.33;7.53;;;;;;;10.12;100.00;97478.41;4945084;28;20210;-70
2021/10/05 08:37:34;;;;;;;7.03;6.13;;;;;;;10.18;100.00;97471.59;4958986;28;20212;-69
2021/10/05 08:40:02;;;;;;;6.63;6.13;;;;;;;10.11;100.00;97463.50;4958308;28;20415;-70
2021/10/05 08:42:30;;;;;;;7.13;6.53;;;;;;;10.12;100.00;97463.34;4948860;28;20632;-70
2021/10/05 08:44:58;;;;;;;7.57;6.93;;;;;;;10.29;100.00;97463.25;4922769;28;20356;-69
2021/10/05 08:47:27;;;;;;;6.37;5.87;;;;;;;10.40;100.00;97473.47;4950713;28;20219;-69
2021/10/05 08:49:56;;;;;;;6.70;6.07;;;;;;;10.63;100.00;97477.94;4949844;28;20458;-70
2021/10/05 08:52:25;;;;;;;7.03;6.43;;;;;;;10.52;100.00;97481.84;4959191;28;20230;-68
2021/10/05 08:54:54;;;;;;;6.77;6.27;;;;;;;10.69;100.00;97479.88;4954193;28;20520;-69
2021/10/05 08:57:29;;;;;;;6.77;6.17;;;;;;;10.63;100.00;97483.25;4955095;28;20304;-68
2021/10/05 08:59:58;;;;;;;7.40;6.80;;;;;;;10.38;100.00;97475.44;4953117;28;20245;-69
2021/10/05 09:02:51;;;;;;;6.30;5.70;;;;;;;10.41;100.00;97484.91;4922148;28;20231;-67
2021/10/05 09:05:25;;;;;;;5.93;5.50;;;;;;;10.41;100.00;97472.47;4941276;28;20977;-69
2021/10/05 09:07:57;;;;;;;5.73;5.23;;;;;;;10.70;100.00;97467.47;4953619;28;20276;-69
2021/10/05 09:10:30;;;;;;;5.80;5.40;;;;;;;10.79;100.00;97462.91;4955156;28;20233;-70
2021/10/05 09:12:59;;;;;;;5.83;5.33;;;;;;;11.06;100.00;97456.22;4952786;28;20352;-68
2021/10/05 09:15:30;;;;;;;6.37;5.87;;;;;;;10.99;100.00;97468.56;4959665;28;20654;-69
2021/10/05 09:18:00;;;;;;;4.90;4.60;;;;;;;10.78;100.00;97472.72;4928449;28;20549;-68
2021/10/05 09:20:30;;;;;;;5.33;4.93;;;;;;;10.60;100.00;97473.00;4950136;28;20218;-69
2021/10/05 09:23:05;;;;;;;5.40;5.00;;;;;;;10.59;100.00;97468.72;4952466;28;20252;-69
2021/10/05 09:25:36;;;;;;;6.03;5.53;;;;;;;10.53;100.00;97456.19;4952381;28;20218;-67
2021/10/05 09:28:16;;;;;;;5.30;4.90;;;;;;;10.64;100.00;97465.53;4948491;28;20290;-69
2021/10/05 09:30:45;;;;;;;6.27;5.77;;;;;;;10.68;100.00;97457.03;4933106;28;20704;-68
2021/10/05 09:33:13;;;;;;;5.53;5.13;;;;;;;10.68;100.00;97465.00;4951265;28;20240;-69
2021/10/05 09:35:45;;;;;;;5.20;4.80;;;;;;;10.77;100.00;97457.81;4955137;28;20579;-69
2021/10/05 09:38:16;;;;;;;4.63;4.30;;;;;;;10.81;100.00;97452.97;4954297;28;20213;-68
2021/10/05 09:40:46;;;;;;;4.10;3.80;;;;;;;10.93;100.00;97442.75;4954071;28;20214;-69
2021/10/05 09:43:21;;;;;;;4.10;3.67;;;;;;;11.38;100.00;97442.81;4957908;28;20719;-69
2021/10/05 09:45:49;;;;;;;5.17;4.87;;;;;;;11.42;100.00;97449.41;4955498;28;20332;-68
2021/10/05 09:48:17;;;;;;;3.83;3.57;;;;;;;11.63;100.00;97455.81;4924909;28;20572;-69
2021/10/05 09:50:46;;;;;;;4.00;3.67;;;;;;;11.76;100.00;97463.94;4939014;28;20218;-69
2021/10/05 09:53:18;;;;;;;3.27;3.07;;;;;;;11.81;100.00;97458.88;4948700;28;20393;-70
2021/10/05 09:55:47;;;;;;;3.70;3.47;;;;;;;11.87;100.00;97468.75;4954122;28;20214;-70
2021/10/05 09:58:19;;;;;;;2.87;2.70;;;;;;;12.02;100.00;97470.63;4944098;28;20659;-69
2021/10/05 10:00:50;;;;;;;2.87;2.67;;;;;;;11.65;100.00;97473.19;4951282;28;20236;-68
2021/10/05 10:03:19;;;;;;;2.57;2.47;;;;;;;11.68;100.00;97475.47;4923661;28;20293;-69
2021/10/05 10:05:47;;;;;;;2.63;2.50;;;;;;;11.48;100.00;97474.38;4957416;28;20730;-68
2021/10/05 10:08:22;;;;;;;2.23;2.13;;;;;;;11.45;100.00;97480.88;4921459;28;20328;-69
2021/10/05 10:10:51;;;;;;;3.20;3.00;;;;;;;11.29;100.00;97497.78;4952698;28;20510;-70
2021/10/05 10:13:20;;;;;;;3.50;3.30;;;;;;;11.20;100.00;97490.91;4952063;28;20277;-70
2021/10/05 10:15:48;;;;;;;3.77;3.53;;;;;;;11.22;100.00;97500.34;4938872;28;20316;-69
2021/10/05 10:18:19;;;;;;;3.40;3.10;;;;;;;11.42;100.00;97494.50;4952320;28;20219;-70
2021/10/05 10:20:50;;;;;;;2.73;2.63;;;;;;;11.42;100.00;97505.09;4929297;28;20225;-69
2021/10/05 10:23:22;;;;;;;4.40;4.00;;;;;;;11.26;100.00;97503.44;4925962;28;20238;-70
2021/10/05 10:25:55;;;;;;;7.30;5.87;;;;;;;11.32;100.00;97508.00;4947537;28;20887;-70
2021/10/05 10:28:29;;;;;;;4.70;4.40;;;;;;;11.21;100.00;97506.66;4956235;28;20214;-68
2021/10/05 10:30:59;;;;;;;11.03;8.80;;;;;;;11.31;100.00;97506.38;4951705;28;20211;-69
2021/10/05 10:33:28;;;;;;;10.47;8.87;;;;;;;11.30;100.00;97499.41;4956100;28;20234;-71
2021/10/05 10:35:58;;;;;;;17.70;14.53;;;;;;;11.22;100.00;97500.34;4943076;28;20441;-72
2021/10/05 10:38:30;;;;;;;26.47;19.80;;;;;;;11.58;100.00;97507.63;4922168;28;20214;-69
2021/10/05 10:41:02;;;;;;;24.37;22.27;;;;;;;11.50;100.00;97505.03;4948852;28;20424;-72
2021/10/05 10:43:31;;;;;;;9.80;9.10;;;;;;;11.50;100.00;97505.03;4954903;28;20266;-70
2021/10/05 10:46:02;;;;;;;6.77;6.27;;;;;;;11.76;100.00;97503.75;4944159;28;20751;-70
2021/10/05 10:48:32;;;;;;;7.07;6.37;;;;;;;11.81;100.00;97509.34;4949407;28;20249;-71
2021/10/05 10:51:02;;;;;;;6.60;6.10;;;;;;;11.67;100.00;97502.22;4935894;28;20218;-71
2021/10/05 10:53:41;;;;;;;6.57;6.07;;;;;;;11.69;100.00;97502.84;4913753;28;20415;-68
2021/10/05 10:56:10;;;;;;;7.00;6.50;;;;;;;11.79;100.00;97503.38;4951058;28;20206;-69
2021/10/05 10:58:41;;;;;;;5.60;5.20;;;;;;;11.63;100.00;97501.72;4952568;28;20210;-72
2021/10/05 11:01:17;;;;;;;5.93;5.43;;;;;;;11.68;100.00;97509.16;4952245;28;20252;-70
2021/10/05 11:03:46;;;;;;;20.70;18.93;;;;;;;11.64;100.00;97507.88;4953389;28;20237;-69
2021/10/05 11:06:24;;;;;;;6.00;5.60;;;;;;;11.66;100.00;97503.22;4939208;28;20217;-69
2021/10/05 11:08:59;;;;;;;7.63;7.00;;;;;;;11.77;100.00;97500.09;4923625;28;20827;-70
2021/10/05 11:11:36;;;;;;;4.90;4.60;;;;;;;11.94;100.00;97499.91;4947478;28;20472;-69
2021/10/05 11:14:06;;;;;;;5.07;4.77;;;;;;;11.93;100.00;97498.22;4953772;28;20257;-71
2021/10/05 11:16:38;;;;;;;4.40;4.10;;;;;;;12.27;100.00;97495.03;4952062;28;20405;-68
2021/10/05 11:19:08;;;;;;;4.03;3.83;;;;;;;12.56;100.00;97487.13;4951294;28;20206;-70
2021/10/05 11:21:38;;;;;;;3.90;3.63;;;;;;;12.53;100.00;97484.84;4947282;28;20393;-70
2021/10/05 11:24:07;;;;;;;3.80;3.60;;;;;;;12.53;100.00;97482.19;4943043;28;20237;-71
2021/10/05 11:26:37;;;;;;;4.00;3.80;;;;;;;12.53;100.00;97480.38;4956711;28;20225;-69
2021/10/05 11:29:07;;;;;;;3.40;2.90;;;;;;;12.55;100.00;97481.00;4974359;28;20574;-69
2021/10/05 11:31:45;;;;;;;2.90;2.80;;;;;;;12.35;100.00;97478.16;4967978;28;20204;-69
2021/10/05 11:34:14;;;;;;;3.80;3.60;;;;;;;12.38;100.00;97482.25;4974443;28;20236;-68